Time;durP1;ratioP1;P1;durP2;ratioP2;P2;SDS_P1;SDS_P2;PMS_P1;PMS_P2;Temp;Humidity;BMP_temperature;BMP_pressure;BME280_temperature;BME280_humidity;BME280_pressure;Samples;Min_cycle;Max_cycle;Signal;HPM_P1;HPM_P2
2023/06/19 00:01:07;;;;;;;6.40;5.80;;;21.90;86.00;;;21.82;50.29;100536.19;5053035;28;20625;-71
2023/06/19 00:03:39;;;;;;;5.70;5.13;;;21.80;86.60;;;21.81;51.06;100540.81;5053062;28;20806;-71
2023/06/19 00:06:13;;;;;;;6.40;5.80;;;21.80;88.00;;;21.77;50.53;100533.34;5053086;28;20655;-71
2023/06/19 00:08:44;;;;;;;5.97;5.47;;;21.80;87.80;;;21.70;49.79;100537.03;5053024;28;20285;-71
2023/06/19 00:11:16;;;;;;;6.50;5.90;;;21.80;86.70;;;21.71;49.99;100537.88;5053310;28;20282;-71
2023/06/19 00:13:48;;;;;;;6.60;6.00;;;21.80;87.00;;;21.73;50.90;100522.94;5053179;28;20312;-71
2023/06/19 00:16:20;;;;;;;6.17;5.57;;;21.80;87.90;;;21.72;50.94;100526.72;5053198;28;20245;-71
2023/06/19 00:18:55;;;;;;;6.37;5.77;;;21.80;87.90;;;21.71;50.85;100524.25;5053250;28;20190;-71
2023/06/19 00:21:28;;;;;;;6.20;5.57;;;21.80;87.90;;;21.71;51.16;100525.03;5053094;28;20264;-71
2023/06/19 00:24:00;;;;;;;7.00;6.00;;;21.80;88.90;;;21.70;51.66;100525.31;5053008;28;20320;-70
2023/06/19 00:26:32;;;;;;;6.40;5.80;;;21.70;89.40;;;21.77;51.06;100522.44;5052797;28;20248;-70
2023/06/19 00:29:04;;;;;;;6.77;6.07;;;21.80;88.40;;;21.77;49.89;100506.09;5052760;28;20736;-70
2023/06/19 00:31:37;;;;;;;7.20;5.93;;;21.90;87.60;;;21.75;51.14;100509.88;5053030;28;20281;-70
2023/06/19 00:34:08;;;;;;;6.63;6.03;;;21.90;88.10;;;21.76;50.96;100510.72;5053026;28;20317;-70
2023/06/19 00:36:41;;;;;;;6.43;5.83;;;21.90;87.70;;;21.71;50.75;100511.44;5053055;28;20222;-70
2023/06/19 00:39:13;;;;;;;7.37;5.77;;;21.80;87.90;;;21.72;49.49;100507.63;5052976;28;20229;-70
2023/06/19 00:41:48;;;;;;;6.33;5.73;;;21.80;86.30;;;21.76;50.35;100516.16;5052587;28;20329;-70
2023/06/19 00:44:19;;;;;;;6.07;5.57;;;21.90;87.60;;;21.75;50.41;100503.59;5055591;28;20313;-70
2023/06/19 00:46:56;;;;;;;5.83;5.33;;;21.90;87.30;;;21.72;49.68;100510.38;5057099;28;20222;-70
2023/06/19 00:49:32;;;;;;;6.17;5.47;;;21.80;86.30;;;21.72;50.43;100501.34;5056947;28;20195;-70
2023/06/19 00:52:05;;;;;;;6.30;5.80;;;21.80;87.30;;;21.74;50.25;100500.06;5056915;28;20191;-70
2023/06/19 00:54:37;;;;;;;6.23;5.57;;;21.90;87.50;;;21.68;48.95;100494.72;5056529;28;20755;-70
2023/06/19 00:57:11;;;;;;;5.77;5.27;;;21.80;86.30;;;21.70;50.70;100496.16;5057051;28;20191;-70
2023/06/19 00:59:42;;;;;;;5.77;5.17;;;21.80;87.40;;;21.71;49.61;100486.91;5056810;28;20233;-70
2023/06/19 01:02:14;;;;;;;5.67;5.27;;;21.90;86.90;;;21.71;50.36;100488.81;5056583;28;20224;-70
2023/06/19 01:04:46;;;;;;;5.80;5.20;;;21.90;87.30;;;21.72;50.03;100482.28;5056682;28;20255;-70
2023/06/19 01:07:28;;;;;;;5.93;5.23;;;21.90;87.50;;;21.68;49.21;100483.81;5056329;28;20191;-70
2023/06/19 01:10:07;;;;;;;5.97;5.37;;;21.90;86.40;;;21.68;49.71;100473.75;5056645;28;20187;-70
2023/06/19 01:12:50;;;;;;;5.57;5.07;;;21.80;86.90;;;21.63;49.25;100470.94;5056933;28;20316;-70
2023/06/19 01:15:23;;;;;;;7.20;6.03;;;21.80;86.50;;;21.58;49.71;100464.53;5056554;28;20252;-70
2023/06/19 01:18:00;;;;;;;5.90;5.40;;;21.70;86.80;;;21.60;49.06;100465.13;5056490;28;20194;-70
2023/06/19 01:20:33;;;;;;;6.80;5.27;;;21.80;86.50;;;21.54;48.62;100458.72;5056945;28;20194;-70
2023/06/19 01:23:11;;;;;;;5.60;5.20;;;21.70;85.20;;;21.51;49.45;100459.22;5056312;28;20333;-70
2023/06/19 01:25:43;;;;;;;5.57;5.10;;;21.70;86.40;;;21.49;49.27;100455.91;5056013;28;20244;-70
2023/06/19 01:28:16;;;;;;;5.73;5.23;;;21.70;86.40;;;21.51;49.03;100453.75;5056234;28;20312;-70
2023/06/19 01:30:48;;;;;;;6.07;5.47;;;21.70;86.50;;;21.51;49.29;100439.31;5055993;28;20652;-70
2023/06/19 01:33:28;;;;;;;5.80;5.30;;;21.70;86.70;;;21.53;48.84;100446.19;5055845;28;20729;-70
2023/06/19 01:36:02;;;;;;;5.83;5.33;;;21.70;86.10;;;21.54;49.39;100433.41;5055870;28;20564;-70
2023/06/19 01:38:38;;;;;;;5.63;5.13;;;21.70;86.50;;;21.47;48.99;100447.13;5056125;28;20233;-70
2023/06/19 01:41:15;;;;;;;5.80;5.30;;;21.70;86.00;;;21.47;49.11;100449.84;5055880;28;20233;-70
2023/06/19 01:43:49;;;;;;;5.43;4.90;;;21.70;86.30;;;21.48;49.35;100454.25;5055965;28;20252;-70
2023/06/19 01:46:21;;;;;;;6.03;5.43;;;21.70;86.10;;;21.44;48.58;100441.34;5055982;28;20280;-70
2023/06/19 01:48:53;;;;;;;8.00;5.57;;;21.70;85.90;;;21.42;48.68;100448.91;5055554;28;20732;-70
2023/06/19 01:51:25;;;;;;;7.50;5.40;;;21.60;85.60;;;21.43;48.98;100454.16;5055849;28;20191;-70
2023/06/19 01:53:58;;;;;;;6.20;5.60;;;21.60;86.20;;;21.39;49.03;100444.78;5055164;28;20296;-70
2023/06/19 01:56:31;;;;;;;5.87;5.23;;;21.60;86.20;;;21.39;49.35;100444.78;5055760;28;20285;-70
2023/06/19 01:59:03;;;;;;;6.33;5.77;;;21.50;86.90;;;21.36;49.92;100447.16;5055461;28;20187;-70
2023/06/19 02:01:35;;;;;;;7.27;5.07;;;21.50;87.40;;;21.34;50.41;100447.38;5056133;28;20244;-70
2023/06/19 02:04:07;;;;;;;5.60;5.10;;;21.50;87.80;;;21.33;49.74;100445.75;5055501;28;20241;-70
2023/06/19 02:06:39;;;;;;;6.17;5.60;;;21.50;87.30;;;21.29;50.58;100450.00;5055521;28;20201;-70
2023/06/19 02:09:12;;;;;;;5.73;5.23;;;21.50;87.70;;;21.28;50.25;100448.34;5055242;28;20643;-70
2023/06/19 02:11:44;;;;;;;5.63;5.13;;;21.40;87.90;;;21.27;50.08;100445.88;5055442;28;20237;-70
2023/06/19 02:14:17;;;;;;;6.00;5.40;;;21.40;87.50;;;21.24;49.63;100441.69;5055307;28;20226;-70
2023/06/19 02:16:49;;;;;;;7.27;5.33;;;21.50;87.10;;;21.23;50.00;100450.97;5055046;28;20187;-70
2023/06/19 02:19:20;;;;;;;6.07;5.30;;;21.30;87.40;;;21.23;49.59;100440.06;5055046;28;20637;-70
2023/06/19 02:21:52;;;;;;;5.80;5.30;;;21.40;87.30;;;21.17;50.20;100447.28;5055177;28;20214;-70
2023/06/19 02:24:26;;;;;;;5.53;5.07;;;21.50;87.80;;;21.16;50.12;100448.31;5055157;28;20281;-70
2023/06/19 02:26:58;;;;;;;5.90;5.20;;;21.40;87.60;;;21.16;50.43;100444.81;5055101;28;20195;-70
2023/06/19 02:29:30;;;;;;;5.60;5.00;;;21.30;88.20;;;21.12;50.77;100438.16;5054780;28;20664;-70
2023/06/19 02:32:02;;;;;;;5.63;5.13;;;21.30;88.20;;;21.12;51.03;100443.59;5054949;28;20190;-70
2023/06/19 02:34:33;;;;;;;5.93;5.43;;;21.30;88.70;;;21.11;50.82;100447.38;5054992;28;20221;-70
2023/06/19 02:37:06;;;;;;;5.63;5.13;;;21.30;88.60;;;21.12;50.65;100449.06;5054632;28;20675;-70
2023/06/19 02:39:40;;;;;;;6.10;5.47;;;21.30;89.10;;;21.09;51.47;100449.50;5054545;28;20632;-70
2023/06/19 02:42:12;;;;;;;5.83;5.33;;;21.30;89.00;;;21.03;51.36;100445.81;5054767;28;20222;-70
2023/06/19 02:44:45;;;;;;;6.43;5.40;;;21.20;88.80;;;21.07;51.48;100440.72;5054515;28;20675;-70
2023/06/19 02:47:17;;;;;;;6.93;5.40;;;21.30;89.60;;;21.06;51.92;100433.63;5054440;28;20648;-70
2023/06/19 02:49:48;;;;;;;5.90;5.40;;;21.30;90.10;;;21.06;51.99;100433.63;5054712;28;20198;-70
2023/06/19 02:52:21;;;;;;;6.43;5.60;;;21.30;90.10;;;21.02;52.79;100429.72;5054317;28;20308;-70
2023/06/19 02:54:54;;;;;;;6.00;5.07;;;21.20;90.50;;;21.00;52.05;100423.69;5054551;28;20218;-70
2023/06/19 02:57:26;;;;;;;7.87;5.57;;;21.20;90.10;;;20.95;52.36;100427.13;5054654;28;20229;-70
2023/06/19 02:59:58;;;;;;;6.00;5.50;;;21.20;90.30;;;20.86;52.23;100428.50;5054612;28;20194;-70
2023/06/19 03:02:30;;;;;;;5.87;5.37;;;21.10;90.10;;;20.86;52.94;100422.25;5054466;28;20308;-71
2023/06/19 03:05:02;;;;;;;7.17;5.97;;;21.10;90.90;;;20.86;52.91;100419.50;5054310;28;20186;-71
2023/06/19 03:07:34;;;;;;;5.97;5.23;;;21.10;91.00;;;20.88;52.35;100415.53;5053895;28;20233;-71
2023/06/19 03:10:09;;;;;;;6.87;5.93;;;21.10;90.50;;;20.84;52.52;100413.50;5054456;28;20273;-71
2023/06/19 03:12:41;;;;;;;6.67;6.00;;;21.10;90.90;;;20.83;52.69;100409.94;5054341;28;20232;-70
2023/06/19 03:15:13;;;;;;;7.07;5.50;;;21.00;90.70;;;20.80;53.26;100407.69;5054430;28;20277;-70
2023/06/19 03:17:45;;;;;;;6.20;5.43;;;21.00;90.80;;;20.78;53.52;100409.00;5054401;28;20273;-70
2023/06/19 03:20:17;;;;;;;6.27;5.67;;;21.10;91.10;;;20.75;53.47;100416.53;5053906;28;20592;-70
2023/06/19 03:22:49;;;;;;;6.40;5.47;;;21.00;91.00;;;20.78;53.61;100419.88;5054108;28;20324;-70
2023/06/19 03:25:23;;;;;;;7.07;6.37;;;21.00;91.20;;;20.78;53.82;100414.44;5053900;28;20640;-70
2023/06/19 03:27:54;;;;;;;6.43;5.77;;;21.00;91.30;;;20.69;53.58;100416.66;5054122;28;20194;-70
2023/06/19 03:30:26;;;;;;;6.73;5.77;;;21.00;91.20;;;20.69;53.68;100419.38;5054144;28;20233;-70
2023/06/19 03:32:58;;;;;;;5.90;5.23;;;20.90;91.30;;;20.61;53.58;100415.13;5054743;28;20304;-71
2023/06/19 03:35:31;;;;;;;6.23;5.63;;;20.90;91.30;;;20.64;53.55;100409.22;5053755;28;20731;-71
2023/06/19 03:38:03;;;;;;;6.50;5.80;;;20.90;91.00;;;20.67;53.52;100397.88;5053939;28;20280;-71
2023/06/19 03:40:36;;;;;;;6.27;5.67;;;21.00;91.30;;;20.62;53.27;100416.78;5053723;28;20248;-71
2023/06/19 03:43:08;;;;;;;6.63;5.73;;;20.90;91.00;;;20.63;52.99;100423.03;5053533;28;20641;-71
2023/06/19 03:45:40;;;;;;;5.80;5.20;;;20.90;91.00;;;20.61;52.95;100420.56;5053498;28;20201;-71
2023/06/19 03:48:12;;;;;;;6.60;6.00;;;20.90;91.00;;;20.61;53.33;100422.47;5053466;28;20611;-71
2023/06/19 03:50:44;;;;;;;7.53;5.70;;;20.90;90.90;;;20.61;52.84;100403.41;5054558;28;20274;-71
2023/06/19 03:53:16;;;;;;;6.37;5.77;;;20.90;90.90;;;20.60;52.91;100408.03;5053644;28;20256;-71
2023/06/19 03:55:49;;;;;;;9.60;5.50;;;21.00;90.90;;;20.61;53.26;100406.97;5053617;28;20277;-71
2023/06/19 03:58:21;;;;;;;6.27;5.60;;;20.90;91.00;;;20.61;53.41;100403.41;5053548;28;20286;-71
2023/06/19 04:00:53;;;;;;;6.83;6.23;;;20.90;91.10;;;20.58;53.94;100425.66;5053226;28;20194;-71
2023/06/19 04:03:25;;;;;;;6.57;5.27;;;20.90;91.50;;;20.57;54.18;100426.69;5053060;28;20320;-71
2023/06/19 04:05:57;;;;;;;6.07;5.57;;;20.80;91.70;;;20.53;52.72;100423.63;5053654;28;20577;-71
2023/06/19 04:08:29;;;;;;;6.77;6.07;;;20.80;90.90;;;20.48;52.89;100433.53;5053937;28;20190;-71
2023/06/19 04:11:03;;;;;;;6.50;5.83;;;20.80;91.00;;;20.51;53.26;100422.19;5053352;28;20205;-71
2023/06/19 04:13:34;;;;;;;6.30;5.80;;;20.80;91.20;;;20.48;53.42;100434.34;5053267;28;20249;-70
2023/06/19 04:16:06;;;;;;;6.17;5.57;;;20.80;91.30;;;20.50;53.73;100429.53;5053301;28;20240;-70
2023/06/19 04:18:38;;;;;;;6.43;5.77;;;20.80;91.40;;;20.53;53.26;100428.22;5052749;28;20277;-70
2023/06/19 04:21:10;;;;;;;6.47;5.87;;;20.80;91.70;;;20.55;53.45;100429.63;5052940;28;20645;-70
2023/06/19 04:23:42;;;;;;;7.33;5.80;;;20.80;91.30;;;20.54;53.31;100430.72;5052351;28;20233;-70
2023/06/19 04:26:15;;;;;;;7.53;6.10;;;20.80;91.30;;;20.53;53.22;100426.34;5052653;28;20272;-70
2023/06/19 04:28:47;;;;;;;7.10;5.90;;;20.90;91.30;;;20.55;53.08;100432.34;5053000;28;20690;-70
2023/06/19 04:31:19;;;;;;;6.93;5.73;;;20.80;91.20;;;20.54;53.47;100435.31;5053064;28;20221;-70
2023/06/19 04:33:51;;;;;;;6.40;5.80;;;20.80;91.20;;;20.54;53.67;100441.59;5053013;28;20308;-70
2023/06/19 04:36:23;;;;;;;5.87;5.30;;;21.10;91.60;;;20.53;54.23;100434.50;5053141;28;20289;-72
2023/06/19 04:38:55;;;;;;;6.87;6.20;;;20.80;92.00;;;20.50;55.56;100440.41;5053119;28;20191;-73
2023/06/19 04:41:28;;;;;;;9.30;6.40;;;20.80;92.20;;;20.49;54.59;100443.34;5052772;28;20649;-73
2023/06/19 04:44:03;;;;;;;6.93;5.83;;;20.80;92.10;;;20.48;53.80;100445.22;5053461;28;20234;-73
2023/06/19 04:46:34;;;;;;;6.70;5.90;;;20.80;91.70;;;20.48;54.06;100447.94;5053251;28;20243;-73
2023/06/19 04:49:06;;;;;;;5.77;5.27;;;20.80;91.70;;;20.49;54.13;100455.06;5052690;28;20637;-73
2023/06/19 04:51:38;;;;;;;8.50;6.03;;;20.80;91.80;;;20.48;54.99;100458.81;5053490;28;20222;-73
2023/06/19 04:54:10;;;;;;;6.17;5.53;;;20.80;92.10;;;20.48;55.16;100463.47;5052817;28;20313;-73
2023/06/19 04:56:43;;;;;;;6.70;5.67;;;20.80;92.50;;;20.46;56.08;100466.41;5052872;28;20559;-73
2023/06/19 04:59:17;;;;;;;8.17;5.70;;;20.80;92.90;;;20.43;55.28;100476.91;5052862;28;20197;-74
2023/06/19 05:01:53;;;;;;;6.27;5.67;;;20.70;92.40;;;20.41;55.18;100474.41;5052510;28;20228;-74
2023/06/19 05:04:25;;;;;;;5.93;5.30;;;20.60;92.60;;;20.40;55.04;100483.66;5052784;28;20221;-73
2023/06/19 05:06:57;;;;;;;6.63;5.97;;;20.70;92.50;;;20.41;55.13;100484.47;5052869;28;20269;-73
2023/06/19 05:09:29;;;;;;;6.27;5.70;;;20.70;92.50;;;20.42;55.27;100507.88;5052798;28;20294;-73
2023/06/19 05:12:02;;;;;;;9.20;5.70;;;20.70;92.70;;;20.42;55.79;100510.59;5052692;28;20229;-73
2023/06/19 05:14:34;;;;;;;6.37;5.80;;;20.70;92.80;;;20.41;58.72;100507.03;5052764;28;20273;-73
2023/06/19 05:17:06;;;;;;;9.33;6.50;;;20.70;94.40;;;20.36;58.97;100512.34;5052426;28;20588;-73
2023/06/19 05:19:38;;;;;;;6.50;5.90;;;20.60;94.90;;;20.32;60.17;100503.00;5052709;28;20554;-73
2023/06/19 05:22:10;;;;;;;8.77;6.10;;;20.50;95.60;;;20.32;60.49;100491.28;5052591;28;20218;-73
2023/06/19 05:24:42;;;;;;;7.00;6.30;;;20.60;96.00;;;20.32;61.46;100481.22;5052780;28;20325;-73
2023/06/19 05:27:15;;;;;;;7.97;6.83;;;20.60;96.60;;;20.30;61.46;100483.38;5052678;28;20282;-74
2023/06/19 05:29:47;;;;;;;7.93;6.80;;;20.60;97.00;;;20.23;61.36;100480.72;5054333;28;20297;-74
2023/06/19 05:32:19;;;;;;;7.63;6.93;;;20.50;96.90;;;20.22;62.55;100467.34;5056259;28;20281;-74
2023/06/19 05:34:51;;;;;;;8.57;6.57;;;20.50;97.90;;;20.11;63.20;100468.09;5055904;28;20183;-74
2023/06/19 05:37:22;;;;;;;11.40;7.60;;;20.40;98.40;;;20.10;65.63;100461.03;5056202;28;20194;-74
2023/06/19 05:39:54;;;;;;;10.57;7.70;;;20.40;99.90;;;20.06;66.42;100454.38;5056184;28;20237;-74
2023/06/19 05:42:27;;;;;;;8.50;7.43;;;20.30;99.90;;;19.94;66.08;100461.63;5055697;28;20255;-74
2023/06/19 05:45:00;;;;;;;8.50;7.70;;;20.20;99.90;;;19.95;66.27;100457.88;5055721;28;20210;-74
2023/06/19 05:47:32;;;;;;;13.67;8.43;;;20.20;99.90;;;19.83;66.25;100465.13;5055973;28;20218;-74
2023/06/19 05:50:06;;;;;;;9.77;7.67;;;20.20;99.90;;;19.88;66.98;100474.25;5055659;28;20194;-74
2023/06/19 05:52:42;;;;;;;9.10;7.10;;;20.20;99.90;;;19.90;65.40;100471.31;5055863;28;20225;-74
2023/06/19 05:55:14;;;;;;;9.00;7.97;;;20.20;99.90;;;19.91;66.62;100467.53;5055868;28;20191;-74
2023/06/19 05:57:48;;;;;;;8.07;7.27;;;20.20;99.90;;;19.94;68.74;100475.22;5055876;28;20195;-74
2023/06/19 06:00:22;;;;;;;8.47;7.67;;;20.20;99.90;;;19.90;69.42;100469.41;5055841;28;20194;-74
2023/06/19 06:02:54;;;;;;;9.20;7.90;;;20.10;99.90;;;19.85;69.78;100485.56;5055644;28;20236;-74
2023/06/19 06:05:26;;;;;;;11.33;8.20;;;20.10;99.90;;;19.89;70.35;100475.09;5055296;28;20671;-74
2023/06/19 06:07:59;;;;;;;9.07;8.17;;;20.20;99.90;;;19.91;71.63;100483.81;5055691;28;20289;-74
2023/06/19 06:10:31;;;;;;;11.00;9.17;;;20.20;99.90;;;19.92;72.40;100490.94;5055267;28;20233;-74
2023/06/19 06:13:04;;;;;;;10.13;9.13;;;20.20;99.90;;;19.83;72.12;100489.59;5055264;28;20232;-74
2023/06/19 06:15:37;;;;;;;8.70;7.73;;;20.10;99.90;;;19.87;71.71;100491.59;5055489;28;20191;-74
2023/06/19 06:18:09;;;;;;;9.13;8.13;;;20.20;99.90;;;19.92;70.08;100488.22;5055160;28;20285;-74
2023/06/19 06:20:40;;;;;;;10.27;8.27;;;20.20;99.90;;;19.95;69.46;100483.16;5055484;28;20285;-74
2023/06/19 06:23:12;;;;;;;9.20;8.03;;;20.20;99.90;;;19.95;69.36;100490.47;5055717;28;20317;-74
2023/06/19 06:25:45;;;;;;;9.63;8.63;;;20.30;99.90;;;19.98;69.06;100490.00;5055339;28;20278;-74
2023/06/19 06:28:18;;;;;;;9.13;8.07;;;20.30;99.90;;;20.00;68.41;100496.88;5055260;28;20273;-74
2023/06/19 06:30:50;;;;;;;12.97;9.00;;;20.10;99.90;;;20.00;68.92;100498.78;5055878;28;20195;-74
2023/06/19 06:33:22;;;;;;;14.63;8.50;;;20.40;99.90;;;19.96;67.71;100501.13;5055083;28;20226;-74
2023/06/19 06:35:55;;;;;;;12.60;8.37;;;20.30;99.90;;;20.02;68.75;100502.09;5055206;28;20600;-74
2023/06/19 06:38:27;;;;;;;16.70;9.10;;;20.40;99.90;;;20.07;68.61;100503.06;5055149;28;20196;-74
2023/06/19 06:40:59;;;;;;;10.87;8.20;;;20.40;99.90;;;20.11;66.84;100504.25;5054815;28;20241;-74
2023/06/19 06:43:32;;;;;;;20.20;8.93;;;20.40;99.90;;;20.13;67.17;100495.91;5055058;28;20244;-74
2023/06/19 06:46:04;;;;;;;15.37;8.37;;;20.40;99.90;;;20.17;66.87;100505.25;5055023;28;20198;-74
2023/06/19 06:48:36;;;;;;;14.80;9.23;;;20.50;99.90;;;20.18;66.53;100507.72;5054856;28;20187;-74
2023/06/19 06:51:10;;;;;;;14.47;8.97;;;20.50;99.90;;;20.22;67.56;100508.09;5054849;28;20201;-74
2023/06/19 06:53:44;;;;;;;10.17;7.90;;;20.60;99.90;;;20.24;65.50;100511.41;5055103;28;20264;-76
2023/06/19 06:56:16;;;;;;;14.03;8.40;;;20.60;99.90;;;20.26;64.47;100509.31;5054569;28;20679;-76
2023/06/19 06:58:49;;;;;;;15.03;9.60;;;20.60;99.90;;;20.29;65.20;100519.75;5054861;28;20238;-77
2023/06/19 07:01:21;;;;;;;24.13;16.37;;;20.60;99.90;;;20.32;65.98;100521.19;5054434;28;20715;-76
2023/06/19 07:03:53;;;;;;;10.87;9.77;;;20.70;99.90;;;20.33;63.26;100523.69;5054138;28;20599;-75
2023/06/19 07:06:26;;;;;;;20.07;11.20;;;20.70;99.90;;;20.36;64.64;100520.50;5054960;28;20191;-75
2023/06/19 07:08:58;;;;;;;12.17;8.43;;;20.70;99.90;;;20.39;63.81;100525.47;5054667;28;20281;-77
2023/06/19 07:11:30;;;;;;;13.83;9.97;;;20.70;99.90;;;20.42;64.82;100532.34;5054439;28;20652;-76
2023/06/19 07:14:04;;;;;;;11.07;8.47;;;20.70;99.90;;;20.43;64.89;100532.13;5054414;28;20261;-66
2023/06/19 07:16:36;;;;;;;13.40;9.67;;;20.80;99.90;;;20.46;64.98;100525.38;5055964;28;20196;-75
2023/06/19 07:19:08;;;;;;;12.57;8.87;;;20.80;99.90;;;20.47;63.96;100522.47;5056068;28;20277;-75
2023/06/19 07:21:41;;;;;;;30.20;23.80;;;20.80;99.90;;;20.49;65.34;100520.31;5055773;28;20193;-75
2023/06/19 07:24:13;;;;;;;14.20;9.30;;;20.80;99.90;;;20.52;64.54;100533.47;5055692;28;20261;-75
2023/06/19 07:26:46;;;;;;;15.67;10.07;;;20.90;99.90;;;20.55;65.95;100545.75;5056323;28;20213;-75
2023/06/19 07:29:21;;;;;;;15.17;9.80;;;20.90;99.90;;;20.59;65.03;100536.09;5055456;28;20640;-75
2023/06/19 07:31:53;;;;;;;10.33;8.97;;;21.20;99.90;;;20.64;65.77;100533.50;5055535;28;20193;-75
2023/06/19 07:34:25;;;;;;;9.33;8.30;;;21.10;99.90;;;20.70;65.23;100546.19;5055597;28;20234;-75
2023/06/19 07:36:57;;;;;;;9.30;7.90;;;21.00;99.90;;;20.73;64.82;100543.84;5055344;28;20221;-75
2023/06/19 07:39:29;;;;;;;12.03;10.07;;;21.10;99.90;;;20.79;65.36;100541.25;5054824;28;20214;-75
2023/06/19 07:42:01;;;;;;;40.40;36.03;;;21.20;99.90;;;20.83;65.92;100540.56;5054867;28;20245;-75
2023/06/19 07:44:34;;;;;;;19.30;16.30;;;21.30;99.90;;;20.88;64.50;100539.88;5055199;28;20650;-75
2023/06/19 07:47:06;;;;;;;9.50;8.60;;;21.30;99.90;;;20.94;63.36;100542.47;5055609;28;20186;-75
2023/06/19 07:49:39;;;;;;;11.43;8.80;;;21.40;99.90;;;21.02;64.71;100550.31;5055754;28;20191;-75
2023/06/19 07:52:14;;;;;;;9.70;8.47;;;21.40;99.90;;;21.08;65.29;100540.38;5055392;28;20225;-75
2023/06/19 07:54:59;;;;;;;9.93;7.77;;;21.50;99.90;;;21.14;63.67;100540.31;5056143;28;20217;-75
2023/06/19 07:57:31;;;;;;;11.03;7.60;;;21.60;99.90;;;21.26;61.84;100548.50;5055732;28;20225;-75
2023/06/19 08:00:08;;;;;;;9.73;7.60;;;21.70;99.90;;;21.31;62.92;100545.06;5055154;28;20315;-75
2023/06/19 08:02:54;;;;;;;8.00;7.20;;;21.80;99.90;;;21.36;61.89;100554.19;5055981;28;20642;-75
2023/06/19 08:08:45;;;;;;;8.20;7.40;;;21.80;99.40;;;21.48;60.47;100546.84;5055329;28;20204;-75
2023/06/19 08:11:17;;;;;;;8.13;7.43;;;22.00;98.90;;;21.56;60.85;100543.78;5054136;28;20253;-75
2023/06/19 08:13:49;;;;;;;11.87;9.60;;;22.00;99.10;;;21.70;60.61;100550.66;5054983;28;20404;-76
2023/06/19 08:16:22;;;;;;;9.87;8.93;;;22.20;99.00;;;21.76;60.19;100557.03;5054353;28;20647;-78
2023/06/19 08:18:53;;;;;;;8.90;7.97;;;22.30;98.50;;;21.89;59.97;100558.69;5054208;28;20273;-79
2023/06/19 08:21:25;;;;;;;9.27;8.30;;;22.40;98.60;;;21.94;59.73;100550.66;5053808;28;20190;-79
2023/06/19 08:23:58;;;;;;;11.33;10.13;;;22.40;98.00;;;22.06;59.56;100554.19;5053773;28;20316;-79
2023/06/19 08:26:30;;;;;;;8.03;7.23;;;22.60;98.00;;;22.19;57.38;100553.94;5054061;28;20214;-79
2023/06/19 08:29:02;;;;;;;8.83;7.93;;;22.70;96.80;;;22.36;55.75;100549.41;5054004;28;20229;-78
2023/06/19 08:31:36;;;;;;;8.63;7.77;;;22.90;96.00;;;22.50;56.30;100558.13;5053268;28;20190;-76
2023/06/19 08:34:10;;;;;;;8.40;7.70;;;23.00;96.00;;;22.79;54.19;100553.50;5052846;28;20230;-77
2023/06/19 08:36:41;;;;;;;8.03;7.33;;;23.20;94.60;;;22.83;54.12;100552.78;5053211;28;20256;-78
2023/06/19 08:39:13;;;;;;;8.43;7.47;;;23.40;95.00;;;22.82;57.00;100544.84;5053133;28;20190;-78
2023/06/19 08:41:45;;;;;;;7.93;6.93;;;23.30;96.20;;;22.98;54.85;100549.53;5052858;28;20305;-77
2023/06/19 08:44:17;;;;;;;8.07;7.37;;;23.40;95.20;;;23.11;53.58;100549.19;5052957;28;20329;-76
2023/06/19 08:46:50;;;;;;;8.80;7.90;;;23.60;94.10;;;23.18;52.51;100544.41;5053160;28;20210;-78
2023/06/19 08:49:22;;;;;;;11.77;8.23;;;23.60;93.50;;;23.25;55.46;100550.53;5052880;28;20289;-73
2023/06/19 08:51:54;;;;;;;232.93;19.73;;;23.80;95.10;;;23.55;59.46;100539.28;5053146;28;20205;-74
2023/06/19 08:54:27;;;;;;;8.50;7.70;;;23.90;85.30;;;23.46;53.46;100544.31;5052900;28;20268;-76
2023/06/19 08:57:03;;;;;;;10.40;7.97;;;23.90;80.90;;;23.53;54.31;100536.78;5052947;28;20274;-76
2023/06/19 08:59:35;;;;;;;8.80;7.60;;;23.90;81.80;;;23.65;52.41;100543.00;5052644;28;20190;-76
2023/06/19 09:02:09;;;;;;;8.63;7.80;;;24.40;79.30;;;23.73;52.82;100558.97;5052799;28;20229;-76
2023/06/19 09:04:41;;;;;;;8.37;7.47;;;24.10;79.50;;;23.92;52.08;100554.03;5054395;28;20218;-76
2023/06/19 09:07:15;;;;;;;10.53;7.90;;;24.30;78.70;;;23.96;51.91;100548.91;5056813;28;20281;-74
2023/06/19 09:09:49;;;;;;;8.00;7.30;;;24.30;78.10;;;23.94;52.97;100562.00;5056626;28;20194;-75
2023/06/19 09:12:21;;;;;;;9.13;8.10;;;24.40;79.50;;;24.09;51.90;100548.53;5056173;28;20604;-75
2023/06/19 09:14:53;;;;;;;8.77;7.73;;;24.40;78.60;;;24.19;53.00;100554.16;5056546;28;20277;-75
2023/06/19 09:17:28;;;;;;;8.07;7.37;;;24.60;79.90;;;24.19;53.24;100548.69;5056192;28;20285;-75
2023/06/19 09:20:01;;;;;;;8.50;7.73;;;24.70;79.30;;;24.22;53.39;100553.66;5056512;28;20186;-75
2023/06/19 09:22:33;;;;;;;8.67;7.87;;;24.70;79.80;;;24.32;51.76;100559.25;5056077;28;20313;-75
2023/06/19 09:25:06;;;;;;;10.60;7.40;;;24.70;77.60;;;24.34;53.28;100556.28;5055999;28;20222;-75
2023/06/19 09:27:38;;;;;;;8.73;7.82;;;24.80;79.70;;;24.34;53.11;100550.78;5056383;28;20194;-75
2023/06/19 09:30:20;;;;;;;8.93;8.17;;;24.80;79.50;;;24.66;50.95;100555.28;5056372;28;20197;-75
2023/06/19 09:32:53;;;;;;;8.97;8.07;;;25.10;76.80;;;24.71;51.68;100546.28;5056287;28;20309;-75
2023/06/19 09:35:25;;;;;;;9.30;8.40;;;25.20;77.30;;;24.72;52.66;100543.31;5055982;28;20183;-75
2023/06/19 09:37:58;;;;;;;9.35;8.45;;;25.10;79.10;;;24.93;51.05;100560.78;5056274;28;20191;-75
2023/06/19 09:40:30;;;;;;;8.65;7.72;;;25.30;76.10;;;25.03;50.89;100546.38;5056297;28;20214;-75
2023/06/19 09:43:07;;;;;;;10.48;8.23;;;25.40;76.50;;;25.12;50.64;100553.03;5056163;28;20309;-75
2023/06/19 09:45:41;;;;;;;9.37;8.30;;;25.50;76.00;;;25.06;49.99;100548.59;5056078;28;20245;-75
2023/06/19 09:48:20;;;;;;;8.87;7.83;;;25.50;74.70;;;25.11;51.54;100552.19;5056164;28;20244;-75
2023/06/19 09:50:55;;;;;;;11.02;10.02;;;25.50;76.80;;;25.23;51.47;100549.28;5055739;28;20637;-75
2023/06/19 09:53:29;;;;;;;10.75;8.90;;;25.60;76.60;;;25.52;49.79;100547.91;5055969;28;20316;-75
2023/06/19 09:56:01;;;;;;;7.95;7.25;;;25.80;74.70;;;25.61;49.46;100553.72;5055657;28;20608;-75
2023/06/19 09:58:33;;;;;;;11.27;7.72;;;26.00;74.40;;;25.62;49.90;100552.63;5055964;28;20221;-75
2023/06/19 10:01:07;;;;;;;9.50;8.00;;;26.10;74.30;;;25.79;50.25;100563.47;5055845;28;20624;-75
2023/06/19 10:03:43;;;;;;;8.93;7.85;;;26.20;74.80;;;26.08;48.25;100561.97;5055726;28;20226;-76
2023/06/19 10:06:23;;;;;;;8.23;7.47;;;26.30;72.20;;;25.95;48.73;100556.97;5055760;28;20264;-75
2023/06/19 10:08:55;;;;;;;8.55;7.75;;;26.30;72.90;;;25.95;50.04;100562.44;5055413;28;20627;-76
2023/06/19 10:11:29;;;;;;;7.97;7.22;;;26.30;74.10;;;25.95;49.23;100567.94;5055573;28;20237;-75
2023/06/19 10:14:10;;;;;;;7.68;6.88;;;26.30;73.40;;;25.86;48.79;100569.53;5055143;28;20309;-75
2023/06/19 10:19:57;;;;;;;7.25;6.63;;;26.10;73.60;;;25.81;49.84;100575.81;5020522;28;20204;-76
2023/06/19 10:22:35;;;;;;;7.38;6.78;;;26.10;74.40;;;25.83;49.40;100578.28;5055344;28;20312;-76
2023/06/19 10:25:08;;;;;;;7.40;6.70;;;26.10;73.80;;;25.89;48.73;100569.00;5054879;28;20590;-76
2023/06/19 10:27:42;;;;;;;7.45;6.78;;;26.10;72.50;;;25.94;48.98;100571.75;5055220;28;20400;-76
2023/06/19 10:30:23;;;;;;;7.43;6.70;;;26.20;72.70;;;25.97;48.71;100574.81;5055285;28;20194;-76
2023/06/19 10:32:55;;;;;;;7.35;6.65;;;26.10;72.40;;;26.03;48.60;100572.91;5055190;28;20229;-76
2023/06/19 10:35:29;;;;;;;7.28;6.68;;;26.30;72.80;;;26.03;49.38;100581.13;5054986;28;20194;-76
2023/06/19 10:38:00;;;;;;;7.70;7.00;;;26.30;73.30;;;26.03;49.07;100587.44;5054808;28;20186;-76
2023/06/19 10:40:33;;;;;;;9.15;7.75;;;26.30;72.90;;;26.07;50.41;100587.75;5054999;28;20206;-76